createdAt,value
2022-12-15T00:02:26.800Z,15.52
2022-12-15T00:05:12.817Z,16.35
2022-12-15T00:07:58.709Z,16.83
2022-12-15T00:10:44.361Z,16.20
2022-12-15T00:13:32.016Z,17.38
2022-12-15T00:16:19.077Z,17.88
2022-12-15T00:19:04.800Z,17.08
2022-12-15T00:21:53.284Z,17.65
2022-12-15T00:24:39.433Z,23.02
2022-12-15T00:27:25.731Z,20.33
2022-12-15T00:30:11.334Z,17.65
2022-12-15T00:32:56.944Z,19.65
2022-12-15T00:35:43.446Z,22.02
2022-12-15T00:38:32.681Z,17.70
2022-12-15T00:43:29.832Z,17.83
2022-12-15T00:46:15.841Z,17.77
2022-12-15T00:48:43.729Z,19.02
2022-12-15T00:51:11.770Z,17.67
2022-12-15T00:53:57.260Z,17.75
2022-12-15T00:56:43.845Z,18.42
2022-12-15T00:59:30.484Z,18.00
2022-12-15T01:02:16.605Z,17.30
2022-12-15T01:05:02.284Z,18.50
2022-12-15T01:07:49.583Z,16.88
2022-12-15T01:10:37.237Z,17.85
2022-12-15T01:13:23.413Z,18.58
2022-12-15T01:16:08.964Z,19.08
2022-12-15T01:18:54.866Z,18.30
2022-12-15T01:21:25.034Z,18.98
2022-12-15T01:23:53.374Z,18.77
2022-12-15T01:26:20.579Z,19.73
2022-12-15T01:28:47.585Z,18.60
2022-12-15T01:31:14.894Z,18.23
2022-12-15T01:33:43.680Z,17.70
2022-12-15T01:36:11.770Z,19.02
2022-12-15T01:38:39.099Z,18.10
2022-12-15T01:41:10.104Z,18.27
2022-12-15T01:43:39.426Z,17.63
2022-12-15T01:46:11.150Z,17.40
2022-12-15T01:48:54.720Z,19.00
2022-12-15T01:51:30.739Z,17.17
2022-12-15T01:54:01.603Z,18.13
2022-12-15T01:56:37.364Z,18.05
2022-12-15T01:59:09.245Z,17.27
2022-12-15T02:01:36.692Z,16.58
2022-12-15T02:04:04.344Z,15.73
2022-12-15T02:06:31.319Z,16.02
2022-12-15T02:09:00.755Z,14.30
2022-12-15T02:11:36.810Z,12.68
2022-12-15T02:14:06.724Z,12.38
2022-12-15T02:16:39.737Z,10.55
2022-12-15T02:19:42.042Z,11.82
2022-12-15T02:22:32.218Z,11.40
2022-12-15T02:25:40.633Z,11.80
2022-12-15T02:28:25.563Z,16.57
2022-12-15T02:31:22.769Z,11.90
2022-12-15T02:33:55.048Z,10.85
2022-12-15T02:36:38.918Z,12.75
2022-12-15T02:39:06.333Z,13.18
2022-12-15T02:41:39.070Z,16.30
2022-12-15T02:44:22.682Z,12.90
2022-12-15T02:47:01.726Z,12.80
2022-12-15T02:50:23.920Z,14.88
2022-12-15T02:53:08.289Z,12.23
2022-12-15T02:55:41.292Z,13.07
2022-12-15T02:58:39.610Z,13.48
2022-12-15T03:01:26.374Z,12.98
2022-12-15T03:03:55.946Z,12.13
2022-12-15T03:06:25.217Z,11.70
2022-12-15T03:08:52.393Z,11.13
2022-12-15T03:11:19.247Z,11.48
2022-12-15T03:13:46.824Z,10.73
2022-12-15T03:16:17.225Z,9.80
2022-12-15T03:18:44.197Z,8.90
2022-12-15T03:21:11.261Z,10.13
2022-12-15T03:23:38.627Z,9.18
2022-12-15T03:26:06.761Z,9.07
2022-12-15T03:28:34.084Z,12.48
2022-12-15T03:31:01.073Z,9.98
2022-12-15T03:33:28.459Z,9.88
2022-12-15T03:35:56.335Z,10.20
2022-12-15T03:38:23.375Z,10.23
2022-12-15T03:40:50.416Z,10.52
2022-12-15T03:43:17.417Z,10.20
2022-12-15T03:45:44.846Z,10.63
2022-12-15T03:48:12.112Z,10.65
2022-12-15T03:50:39.079Z,10.13
2022-12-15T03:53:06.301Z,10.43
2022-12-15T03:55:35.235Z,10.95
2022-12-15T03:58:02.874Z,10.57
2022-12-15T04:00:30.244Z,10.40
2022-12-15T04:02:57.535Z,10.15
2022-12-15T04:05:33.199Z,11.70
2022-12-15T04:08:01.945Z,11.55
2022-12-15T04:10:34.383Z,12.30
2022-12-15T04:13:11.297Z,13.00
2022-12-15T04:15:40.132Z,12.07
2022-12-15T04:18:14.056Z,12.30
2022-12-15T04:20:41.421Z,10.95
2022-12-15T04:23:08.757Z,11.50
2022-12-15T04:25:55.522Z,12.32
2022-12-15T04:28:43.771Z,11.93
2022-12-15T04:31:33.878Z,12.68
2022-12-15T04:34:22.704Z,14.57
2022-12-15T04:37:11.378Z,12.80
2022-12-15T04:40:04.841Z,11.73
2022-12-15T04:42:52.261Z,12.18
2022-12-15T04:45:40.107Z,12.45
2022-12-15T04:48:25.763Z,11.60
2022-12-15T04:51:11.427Z,11.52
2022-12-15T04:53:56.935Z,11.55
2022-12-15T04:56:42.369Z,11.32
2022-12-15T04:59:27.906Z,12.63
2022-12-15T05:02:13.785Z,13.55
2022-12-15T05:04:59.519Z,9.80
2022-12-15T05:07:45.814Z,8.70
2022-12-15T05:10:31.592Z,8.45
2022-12-15T05:13:28.491Z,8.23
2022-12-15T05:16:15.397Z,8.70
2022-12-15T05:19:01.140Z,8.90
2022-12-15T05:21:47.026Z,9.57
2022-12-15T05:24:34.859Z,9.30
2022-12-15T05:27:20.410Z,9.48
2022-12-15T05:30:06.001Z,9.55
2022-12-15T05:32:33.462Z,9.45
2022-12-15T05:35:01.518Z,9.25
2022-12-15T05:37:30.348Z,9.77
2022-12-15T05:39:57.403Z,9.93
2022-12-15T05:42:24.356Z,10.00
2022-12-15T05:44:51.422Z,9.98
2022-12-15T05:47:18.652Z,10.05
2022-12-15T05:49:45.599Z,10.45
2022-12-15T05:52:12.789Z,10.32
2022-12-15T05:54:39.783Z,12.02
2022-12-15T05:57:06.929Z,12.35
2022-12-15T05:59:34.068Z,13.48
2022-12-15T06:02:01.192Z,16.08
2022-12-15T06:04:28.653Z,17.98
2022-12-15T06:07:14.627Z,16.27
2022-12-15T06:09:41.616Z,17.25
2022-12-15T06:12:08.501Z,17.25
2022-12-15T06:14:36.741Z,18.60
2022-12-15T06:17:04.490Z,15.87
2022-12-15T06:19:31.860Z,15.65
2022-12-15T06:21:58.910Z,14.80
2022-12-15T06:24:26.153Z,15.55
2022-12-15T06:26:53.366Z,13.63
2022-12-15T06:29:20.420Z,14.07
2022-12-15T06:31:48.016Z,13.63
2022-12-15T06:34:17.023Z,14.80
2022-12-15T06:36:44.565Z,15.43
2022-12-15T06:39:13.978Z,14.40
2022-12-15T06:41:42.219Z,14.82
2022-12-15T06:44:13.439Z,14.98
2022-12-15T06:46:40.428Z,14.05
2022-12-15T06:49:09.083Z,15.73
2022-12-15T06:51:36.675Z,15.63
2022-12-15T06:54:03.723Z,15.23
2022-12-15T06:56:34.580Z,13.40
2022-12-15T06:59:03.960Z,13.98
2022-12-15T07:01:31.870Z,13.38
2022-12-15T07:04:03.232Z,13.63
2022-12-15T07:06:37.613Z,13.75
2022-12-15T07:09:08.565Z,12.88
2022-12-15T07:11:36.184Z,13.27
2022-12-15T07:14:03.409Z,12.57
2022-12-15T07:16:31.096Z,11.45
2022-12-15T07:18:58.896Z,11.43
2022-12-15T07:21:26.329Z,12.02
2022-12-15T07:23:55.921Z,12.90
2022-12-15T07:26:24.682Z,14.27
2022-12-15T07:28:54.222Z,14.38
2022-12-15T07:31:23.131Z,14.10
2022-12-15T07:33:52.908Z,13.93
2022-12-15T07:36:20.509Z,13.68
2022-12-15T07:38:50.323Z,14.02
2022-12-15T07:41:19.532Z,15.48
2022-12-15T07:43:48.043Z,13.90
2022-12-15T07:46:15.891Z,13.13
2022-12-15T07:48:43.095Z,12.98
2022-12-15T07:51:18.793Z,13.32
2022-12-15T07:53:49.646Z,13.05
2022-12-15T07:56:19.185Z,12.32
2022-12-15T07:58:46.658Z,12.98
2022-12-15T08:01:15.565Z,11.75
2022-12-15T08:03:42.928Z,12.90
2022-12-15T08:06:13.329Z,10.75
2022-12-15T08:08:41.039Z,11.38
2022-12-15T08:11:10.644Z,12.57
2022-12-15T08:14:01.872Z,11.95
2022-12-15T08:16:26.160Z,12.35
2022-12-15T08:18:53.941Z,12.80
2022-12-15T08:21:21.202Z,12.95
2022-12-15T08:23:51.170Z,12.50
2022-12-15T08:26:19.559Z,13.90
2022-12-15T08:28:47.237Z,13.10
2022-12-15T08:31:17.582Z,12.45
2022-12-15T08:33:45.621Z,12.73
2022-12-15T08:36:14.466Z,13.10
2022-12-15T08:38:43.181Z,12.68
2022-12-15T08:41:11.745Z,13.35
2022-12-15T08:43:45.800Z,13.80
2022-12-15T08:46:16.056Z,14.75
2022-12-15T08:48:43.337Z,13.52
2022-12-15T08:51:10.724Z,13.35
2022-12-15T08:53:38.913Z,15.85
2022-12-15T08:56:09.020Z,26.08
2022-12-15T08:58:36.417Z,20.27
2022-12-15T09:01:09.131Z,19.70
2022-12-15T09:03:37.136Z,15.80
2022-12-15T09:06:11.789Z,18.10
2022-12-15T09:08:39.061Z,15.23
2022-12-15T09:11:06.405Z,13.40
2022-12-15T09:13:33.974Z,13.85
2022-12-15T09:16:13.354Z,13.80
2022-12-15T09:18:46.145Z,14.40
2022-12-15T09:21:15.011Z,14.27
2022-12-15T09:23:43.281Z,14.10
2022-12-15T09:28:43.311Z,16.08
2022-12-15T09:31:15.431Z,15.73
2022-12-15T09:33:43.908Z,19.02
2022-12-15T09:36:13.320Z,20.87
2022-12-15T09:41:13.684Z,18.05
2022-12-15T09:44:05.425Z,18.17
2022-12-15T09:47:11.523Z,18.88
2022-12-15T09:49:51.378Z,26.33
2022-12-15T09:52:23.764Z,28.27
2022-12-15T09:54:51.551Z,26.33
2022-12-15T09:57:26.251Z,26.90
2022-12-15T10:00:21.004Z,30.95
2022-12-15T10:02:54.176Z,33.30
2022-12-15T10:06:07.046Z,34.80
2022-12-15T10:08:31.088Z,35.97
2022-12-15T10:11:16.215Z,37.67
2022-12-15T10:14:27.331Z,35.30
2022-12-15T10:17:25.373Z,34.00
2022-12-15T10:20:02.504Z,34.03
2022-12-15T10:22:39.140Z,33.17
2022-12-15T10:25:27.459Z,32.22
2022-12-15T10:28:24.963Z,31.08
2022-12-15T10:31:05.383Z,30.42
2022-12-15T10:33:39.700Z,27.73
2022-12-15T10:36:15.445Z,27.33
2022-12-15T10:38:50.537Z,26.13
2022-12-15T10:41:22.360Z,26.88
2022-12-15T10:43:54.664Z,26.00
2022-12-15T10:46:28.015Z,27.05
2022-12-15T10:49:07.512Z,27.00
2022-12-15T10:51:44.240Z,26.35
2022-12-15T10:54:14.146Z,25.05
2022-12-15T10:56:59.101Z,24.58
2022-12-15T10:59:31.999Z,24.48
2022-12-15T11:02:23.016Z,23.25
2022-12-15T11:04:58.354Z,23.83
2022-12-15T11:07:53.581Z,23.83
2022-12-15T11:10:50.046Z,23.17
2022-12-15T11:13:22.646Z,23.55
2022-12-15T11:15:55.088Z,23.80
2022-12-15T11:18:46.322Z,25.13
2022-12-15T11:21:30.765Z,24.17
2022-12-15T11:24:38.928Z,23.67
2022-12-15T11:27:14.327Z,23.27
2022-12-15T11:30:02.936Z,23.13
2022-12-15T11:32:35.345Z,22.83
2022-12-15T11:35:02.915Z,23.00
2022-12-15T11:37:44.423Z,21.98
2022-12-15T11:40:21.533Z,23.33
2022-12-15T11:42:54.852Z,23.05
2022-12-15T11:45:35.548Z,21.98
2022-12-15T11:48:13.833Z,23.90
2022-12-15T11:51:05.880Z,23.35
2022-12-15T11:54:17.247Z,22.23
2022-12-15T11:57:02.358Z,22.13
2022-12-15T11:59:56.968Z,23.67
2022-12-15T12:02:48.652Z,23.60
2022-12-15T12:05:40.429Z,22.90
2022-12-15T12:08:26.032Z,24.27
2022-12-15T12:10:59.055Z,27.48
2022-12-15T12:13:40.654Z,23.48
2022-12-15T12:16:32.773Z,23.98
2022-12-15T12:19:10.073Z,24.02
2022-12-15T12:21:41.084Z,24.10
2022-12-15T12:24:25.066Z,23.73
2022-12-15T12:27:34.025Z,23.90
2022-12-15T12:30:06.923Z,23.80
2022-12-15T12:32:43.788Z,23.88
2022-12-15T12:35:33.504Z,24.77
2022-12-15T12:38:03.857Z,23.77
2022-12-15T12:40:40.907Z,24.98
2022-12-15T12:43:14.089Z,24.85
2022-12-15T12:45:54.316Z,24.98
2022-12-15T12:49:00.356Z,24.90
2022-12-15T12:51:36.866Z,23.73
2022-12-15T12:54:33.930Z,23.02
2022-12-15T12:57:02.512Z,23.88
2022-12-15T12:59:29.372Z,23.70
2022-12-15T13:01:58.554Z,24.95
2022-12-15T13:04:28.672Z,24.58
2022-12-15T13:06:55.439Z,24.17
2022-12-15T13:09:25.314Z,24.75
2022-12-15T13:11:52.316Z,25.98
2022-12-15T13:14:46.672Z,25.90
2022-12-15T13:20:02.776Z,22.95
2022-12-15T13:22:36.535Z,24.75
2022-12-15T13:25:41.927Z,24.17
2022-12-15T13:28:28.263Z,23.50
2022-12-15T13:31:27.717Z,24.45
2022-12-15T13:36:39.952Z,23.40
2022-12-15T13:39:13.246Z,24.20
2022-12-15T13:42:07.472Z,24.23
2022-12-15T13:44:38.161Z,25.02
2022-12-15T13:47:16.607Z,27.98
2022-12-15T13:50:01.377Z,30.02
2022-12-15T13:55:51.563Z,27.17
2022-12-15T13:58:21.382Z,27.58
2022-12-15T14:00:52.029Z,29.75
2022-12-15T14:03:19.047Z,29.05
2022-12-15T14:05:52.369Z,29.83
2022-12-15T14:08:22.072Z,27.75
2022-12-15T14:11:50.907Z,29.55
2022-12-15T14:14:23.512Z,28.40
2022-12-15T14:16:58.844Z,28.83
2022-12-15T14:19:27.502Z,27.65
2022-12-15T14:21:59.482Z,27.77
2022-12-15T14:27:29.588Z,27.15
2022-12-15T14:30:12.786Z,29.33
2022-12-15T14:32:42.743Z,27.70
2022-12-15T14:35:26.238Z,27.65
2022-12-15T14:37:55.928Z,27.38
2022-12-15T14:42:56.962Z,25.48
2022-12-15T14:45:27.513Z,26.63
2022-12-15T14:48:30.408Z,26.67
2022-12-15T14:50:47.889Z,26.98
2022-12-15T14:53:17.933Z,27.10
2022-12-15T14:55:45.591Z,29.35
2022-12-15T14:58:29.732Z,28.80
2022-12-15T15:00:57.549Z,32.10
2022-12-15T15:03:10.518Z,29.25
2022-12-15T15:03:35.362Z,31.50
2022-12-15T15:06:12.130Z,31.20
2022-12-15T15:08:50.908Z,32.88
2022-12-15T15:11:21.222Z,37.10
2022-12-15T15:13:48.475Z,38.40
2022-12-15T15:16:17.482Z,37.03
2022-12-15T15:18:49.361Z,40.88
2022-12-15T15:21:26.462Z,41.58
2022-12-15T15:24:00.011Z,40.90
2022-12-15T15:26:28.546Z,41.40
2022-12-15T15:28:55.951Z,40.35
2022-12-15T15:31:23.045Z,46.90
2022-12-15T15:33:50.833Z,44.60
2022-12-15T15:36:17.919Z,52.80
2022-12-15T15:38:46.882Z,54.10
2022-12-15T15:41:18.112Z,49.05
2022-12-15T15:43:46.112Z,50.92
2022-12-15T15:46:22.227Z,54.90
2022-12-15T15:48:50.638Z,60.13
2022-12-15T15:51:18.624Z,54.75
2022-12-15T15:53:46.872Z,53.75
2022-12-15T15:56:16.693Z,53.05
2022-12-15T15:58:44.484Z,49.97
2022-12-15T16:01:13.637Z,49.53
2022-12-15T16:06:17.382Z,45.45
2022-12-15T16:08:45.583Z,47.50
2022-12-15T16:11:12.874Z,48.08
2022-12-15T16:13:40.083Z,46.03
2022-12-15T16:16:15.230Z,40.88
2022-12-15T16:18:42.848Z,42.42
2022-12-15T16:21:14.159Z,42.95
2022-12-15T16:23:44.128Z,41.30
2022-12-15T16:26:17.049Z,40.08
2022-12-15T16:28:44.358Z,40.22
2022-12-15T16:31:24.715Z,38.88
2022-12-15T16:33:52.142Z,40.17
2022-12-15T16:36:19.244Z,38.72
2022-12-15T16:38:46.316Z,37.50
2022-12-15T16:41:17.235Z,38.55
2022-12-15T16:43:48.251Z,41.28
2022-12-15T16:46:16.157Z,40.60
2022-12-15T16:48:45.649Z,39.05
2022-12-15T16:54:27.035Z,38.03
2022-12-15T16:56:56.996Z,39.33
2022-12-15T16:59:36.274Z,38.20
2022-12-15T17:04:47.460Z,59.40
2022-12-15T17:07:20.012Z,45.25
2022-12-15T17:09:50.074Z,39.95
2022-12-15T17:14:46.044Z,35.42
2022-12-15T17:17:18.723Z,38.05
2022-12-15T17:20:19.947Z,35.90
2022-12-15T17:22:36.267Z,38.38
2022-12-15T17:25:03.316Z,38.85
2022-12-15T17:27:31.666Z,44.78
2022-12-15T17:30:00.870Z,41.72
2022-12-15T17:34:55.105Z,39.05
2022-12-15T17:37:26.186Z,42.08
2022-12-15T17:39:56.558Z,41.97
2022-12-15T17:42:23.609Z,40.80
2022-12-15T17:44:51.869Z,40.08
2022-12-15T17:47:19.167Z,38.75
2022-12-15T17:49:47.382Z,38.58
2022-12-15T17:52:35.053Z,38.92
2022-12-15T17:55:04.413Z,42.13
2022-12-15T17:57:32.271Z,41.50
2022-12-15T18:00:02.815Z,42.42
2022-12-15T18:02:33.100Z,39.28
2022-12-15T18:05:00.252Z,43.65
2022-12-15T18:07:28.118Z,44.28
2022-12-15T18:09:55.537Z,41.58
2022-12-15T18:12:27.953Z,42.17
2022-12-15T18:14:56.980Z,43.92
2022-12-15T18:17:24.501Z,43.30
2022-12-15T18:19:51.743Z,40.67
2022-12-15T18:22:24.101Z,41.72
2022-12-15T18:24:53.495Z,42.55
2022-12-15T18:27:29.614Z,42.78
2022-12-15T18:29:57.191Z,42.80
2022-12-15T18:32:26.688Z,42.67
2022-12-15T18:34:54.864Z,44.35
2022-12-15T18:37:24.862Z,42.05
2022-12-15T18:39:52.708Z,49.50
2022-12-15T18:42:21.597Z,47.88
2022-12-15T18:44:53.601Z,49.58
2022-12-15T18:47:23.506Z,50.15
2022-12-15T18:49:51.786Z,47.95
2022-12-15T18:52:24.494Z,50.75
2022-12-15T18:54:54.213Z,54.33
2022-12-15T18:57:30.847Z,51.92
2022-12-15T19:00:17.416Z,53.42
2022-12-15T19:02:44.507Z,55.55
2022-12-15T19:05:27.711Z,56.75
2022-12-15T19:08:00.814Z,58.42
2022-12-15T19:10:30.351Z,57.90
2022-12-15T19:15:26.149Z,58.35
2022-12-15T19:18:11.816Z,61.65
2022-12-15T19:20:59.459Z,58.53
2022-12-15T19:23:26.546Z,61.20
2022-12-15T19:25:54.587Z,63.13
2022-12-15T19:28:23.439Z,59.90
2022-12-15T19:30:52.225Z,61.92
2022-12-15T19:33:20.084Z,63.00
2022-12-15T19:35:51.145Z,67.63
2022-12-15T19:38:25.654Z,73.93
2022-12-15T19:40:54.640Z,95.47
2022-12-15T19:43:24.205Z,76.90
2022-12-15T19:45:52.239Z,75.82
2022-12-15T19:48:23.340Z,73.68
2022-12-15T19:50:52.185Z,73.60
2022-12-15T19:53:25.921Z,71.40
2022-12-15T19:55:55.591Z,72.32
2022-12-15T19:58:33.071Z,73.55
2022-12-15T20:01:06.966Z,74.30
2022-12-15T20:03:34.962Z,72.13
2022-12-15T20:06:03.879Z,72.45
2022-12-15T20:08:36.923Z,78.00
2022-12-15T20:11:05.177Z,74.63
2022-12-15T20:13:32.656Z,73.80
2022-12-15T20:15:59.849Z,73.38
2022-12-15T20:18:27.071Z,69.60
2022-12-15T20:20:54.312Z,74.35
2022-12-15T20:23:29.534Z,76.53
2022-12-15T20:25:57.329Z,75.50
2022-12-15T20:28:29.927Z,75.72
2022-12-15T20:30:57.428Z,75.30
2022-12-15T20:33:24.917Z,74.97
2022-12-15T20:35:52.787Z,74.47
2022-12-15T20:38:25.383Z,76.65
2022-12-15T20:40:53.090Z,76.82
2022-12-15T20:43:22.350Z,78.03
2022-12-15T20:48:25.692Z,79.28
2022-12-15T20:50:53.439Z,78.43
2022-12-15T20:53:24.263Z,79.20
2022-12-15T20:55:53.296Z,81.55
2022-12-15T20:58:21.302Z,82.28
2022-12-15T21:00:51.755Z,84.13
2022-12-15T21:03:30.314Z,82.60
2022-12-15T21:05:58.859Z,81.35
2022-12-15T21:08:29.692Z,81.75
2022-12-15T21:11:02.767Z,73.95
2022-12-15T21:13:33.047Z,78.57
2022-12-15T21:16:00.736Z,80.05
2022-12-15T21:21:20.942Z,74.78
2022-12-15T21:23:49.009Z,74.40
2022-12-15T21:26:22.084Z,77.30
2022-12-15T21:28:50.342Z,77.55
2022-12-15T21:31:19.101Z,78.80
2022-12-15T21:33:46.716Z,84.38
2022-12-15T21:36:15.726Z,80.72
2022-12-15T21:38:46.643Z,79.80
2022-12-15T21:41:16.791Z,75.22
2022-12-15T21:43:43.888Z,74.10
2022-12-15T21:46:31.137Z,72.22
2022-12-15T21:49:18.648Z,69.45
2022-12-15T21:51:57.599Z,67.10
2022-12-15T21:54:30.928Z,66.90
2022-12-15T21:56:59.742Z,67.03
2022-12-15T21:59:29.608Z,65.72
2022-12-15T22:01:59.274Z,66.47
2022-12-15T22:04:34.959Z,64.28
2022-12-15T22:07:02.584Z,64.38
2022-12-15T22:09:29.529Z,62.75
2022-12-15T22:11:57.083Z,71.38
2022-12-15T22:14:28.195Z,66.15
2022-12-15T22:16:55.771Z,64.30
2022-12-15T22:19:23.614Z,65.18
2022-12-15T22:21:51.135Z,66.93
2022-12-15T22:24:20.927Z,67.70
2022-12-15T22:26:48.047Z,65.53
2022-12-15T22:29:18.855Z,94.88
2022-12-15T22:31:46.949Z,70.78
2022-12-15T22:34:19.621Z,66.47
2022-12-15T22:36:46.786Z,64.95
2022-12-15T22:39:15.024Z,61.80
2022-12-15T22:41:47.846Z,64.23
2022-12-15T22:44:27.704Z,62.30
2022-12-15T22:46:56.986Z,61.90
2022-12-15T22:49:30.557Z,60.72
2022-12-15T22:51:58.172Z,59.40
2022-12-15T22:54:27.654Z,62.83
2022-12-15T22:59:36.196Z,62.42
2022-12-15T23:02:03.715Z,66.90
2022-12-15T23:04:32.264Z,65.35
2022-12-15T23:07:05.103Z,65.25
2022-12-15T23:09:32.169Z,66.82
2022-12-15T23:12:01.924Z,68.63
2022-12-15T23:14:47.766Z,68.35
2022-12-15T23:17:14.978Z,74.97
2022-12-15T23:19:46.130Z,71.10
2022-12-15T23:22:13.946Z,76.15
2022-12-15T23:24:41.096Z,76.10
2022-12-15T23:27:11.930Z,76.97
2022-12-15T23:29:47.979Z,82.68
2022-12-15T23:32:15.273Z,81.05
2022-12-15T23:34:42.478Z,77.38
2022-12-15T23:37:09.888Z,80.80
2022-12-15T23:39:37.055Z,78.82
2022-12-15T23:42:05.674Z,79.53
2022-12-15T23:44:32.621Z,82.07
2022-12-15T23:46:59.942Z,78.93
2022-12-15T23:49:27.014Z,81.32
2022-12-15T23:51:54.068Z,81.97
2022-12-15T23:54:22.376Z,106.80
2022-12-15T23:56:49.429Z,110.07
